createdAt,value
2018-06-09T00:00:51.249Z,20.89
2018-06-09T00:01:51.272Z,20.90
2018-06-09T00:02:51.294Z,20.89
2018-06-09T00:03:51.313Z,20.89
2018-06-09T00:04:51.337Z,20.89
2018-06-09T00:05:51.362Z,20.77
2018-06-09T00:06:51.383Z,20.81
2018-06-09T00:07:51.402Z,20.80
2018-06-09T00:08:51.427Z,20.81
2018-06-09T00:09:51.450Z,20.86
2018-06-09T00:10:51.471Z,20.84
2018-06-09T00:11:51.495Z,20.84
2018-06-09T00:12:51.519Z,20.86
2018-06-09T00:13:51.544Z,20.83
2018-06-09T00:14:51.567Z,20.81
2018-06-09T00:15:51.585Z,20.83
2018-06-09T00:16:51.616Z,20.77
2018-06-09T00:17:51.637Z,20.81
2018-06-09T00:18:51.657Z,20.79
2018-06-09T00:19:51.681Z,20.83
2018-06-09T00:20:51.700Z,20.83
2018-06-09T00:21:51.725Z,20.72
2018-06-09T00:22:51.766Z,20.79
2018-06-09T00:23:51.768Z,20.76
2018-06-09T00:24:51.799Z,20.81
2018-06-09T00:25:51.818Z,20.76
2018-06-09T00:26:51.841Z,20.74
2018-06-09T00:27:51.859Z,20.77
2018-06-09T00:28:51.886Z,20.72
2018-06-09T00:29:51.904Z,20.76
2018-06-09T00:30:51.927Z,20.80
2018-06-09T00:31:51.953Z,20.76
2018-06-09T00:32:51.976Z,20.76
2018-06-09T00:33:51.994Z,20.72
2018-06-09T00:34:52.020Z,20.74
2018-06-09T00:35:52.046Z,20.71
2018-06-09T00:36:52.066Z,20.69
2018-06-09T00:37:52.084Z,20.74
2018-06-09T00:38:52.109Z,20.68
2018-06-09T00:39:52.134Z,20.66
2018-06-09T00:40:52.165Z,20.71
2018-06-09T00:41:52.180Z,20.65
2018-06-09T00:42:52.202Z,20.68
2018-06-09T00:43:52.226Z,20.64
2018-06-09T00:44:52.260Z,20.66
2018-06-09T00:45:52.264Z,20.62
2018-06-09T00:46:52.293Z,20.65
2018-06-09T00:47:52.314Z,20.56
2018-06-09T00:48:52.337Z,20.62
2018-06-09T00:49:52.359Z,20.53
2018-06-09T00:50:52.380Z,20.53
2018-06-09T00:51:52.403Z,20.38
2018-06-09T00:52:52.423Z,20.53
2018-06-09T00:53:52.444Z,20.50
2018-06-09T00:54:52.468Z,20.41
2018-06-09T00:55:52.495Z,20.33
2018-06-09T00:56:52.520Z,20.27
2018-06-09T00:57:52.538Z,20.31
2018-06-09T00:58:52.569Z,20.31
2018-06-09T00:59:52.579Z,20.16
2018-06-09T01:00:52.600Z,20.21
2018-06-09T01:01:52.624Z,20.20
2018-06-09T01:02:52.654Z,20.27
2018-06-09T01:03:52.668Z,20.18
2018-06-09T01:04:52.694Z,20.25
2018-06-09T01:05:52.715Z,20.21
2018-06-09T01:06:52.740Z,20.21
2018-06-09T01:07:52.765Z,20.24
2018-06-09T01:08:52.789Z,20.09
2018-06-09T01:09:52.807Z,20.03
2018-06-09T01:10:52.836Z,20.06
2018-06-09T01:11:52.853Z,20.00
2018-06-09T01:12:52.872Z,19.95
2018-06-09T01:13:52.897Z,19.98
2018-06-09T01:14:52.919Z,19.93
2018-06-09T01:15:52.939Z,19.84
2018-06-09T01:16:52.966Z,19.79
2018-06-09T01:17:52.990Z,19.93
2018-06-09T01:18:53.008Z,19.94
2018-06-09T01:19:53.027Z,19.84
2018-06-09T01:20:53.049Z,19.94
2018-06-09T01:21:53.073Z,19.86
2018-06-09T01:22:53.095Z,19.84
2018-06-09T01:23:53.118Z,19.70
2018-06-09T01:24:53.142Z,19.73
2018-06-09T01:25:53.164Z,19.86
2018-06-09T01:26:53.182Z,19.73
2018-06-09T01:27:53.206Z,19.76
2018-06-09T01:28:53.228Z,19.76
2018-06-09T01:29:53.253Z,19.72
2018-06-09T01:30:53.277Z,19.57
2018-06-09T01:31:53.295Z,19.54
2018-06-09T01:32:53.320Z,19.60
2018-06-09T01:33:53.344Z,19.54
2018-06-09T01:34:53.365Z,19.47
2018-06-09T01:35:53.383Z,19.50
2018-06-09T01:36:53.411Z,19.43
2018-06-09T01:37:53.426Z,19.36
2018-06-09T01:38:53.453Z,19.32
2018-06-09T01:39:53.473Z,19.33
2018-06-09T01:40:53.497Z,19.21
2018-06-09T01:41:53.515Z,19.02
2018-06-09T01:42:53.538Z,19.05
2018-06-09T01:43:53.561Z,19.08
2018-06-09T01:44:53.589Z,19.08
2018-06-09T01:45:53.604Z,18.95
2018-06-09T01:46:53.623Z,18.94
2018-06-09T01:47:53.647Z,18.95
2018-06-09T03:48:30.570Z,17.99
2018-06-09T03:49:30.555Z,17.92
2018-06-09T03:51:23.476Z,17.97
2018-06-09T03:52:23.485Z,17.94
2018-06-09T03:54:16.430Z,17.99
2018-06-09T03:55:16.423Z,18.02
2018-06-09T03:57:09.343Z,17.99
2018-06-09T03:58:09.355Z,18.07
2018-06-09T04:00:02.296Z,18.12
2018-06-09T04:01:02.287Z,18.15
2018-06-09T04:02:02.305Z,18.13
2018-06-09T04:03:02.325Z,18.19
2018-06-09T04:04:02.341Z,18.19
2018-06-09T04:05:02.362Z,18.21
2018-06-09T04:06:02.381Z,18.27
2018-06-09T04:07:02.400Z,18.36
2018-06-09T04:08:02.417Z,18.42
2018-06-09T04:09:02.438Z,18.37
2018-06-09T04:10:02.456Z,18.43
2018-06-09T04:11:02.476Z,18.46
2018-06-09T04:12:02.500Z,18.40
2018-06-09T04:13:02.520Z,18.47
2018-06-09T04:14:02.534Z,18.46
2018-06-09T04:15:02.558Z,18.49
2018-06-09T04:16:02.576Z,18.49
2018-06-09T04:17:02.607Z,18.57
2018-06-09T04:18:02.620Z,18.50
2018-06-09T04:19:02.641Z,18.59
2018-06-09T04:20:02.662Z,18.54
2018-06-09T04:21:02.684Z,18.55
2018-06-09T04:22:02.703Z,18.54
2018-06-09T04:23:02.723Z,18.57
2018-06-09T04:24:02.745Z,18.58
2018-06-09T04:25:02.767Z,18.58
2018-06-09T04:26:02.786Z,18.59
2018-06-09T04:27:02.803Z,18.54
2018-06-09T04:28:02.829Z,18.64
2018-06-09T04:29:02.857Z,18.62
2018-06-09T04:30:02.867Z,18.65
2018-06-09T04:31:02.889Z,18.68
2018-06-09T04:32:02.911Z,18.65
2018-06-09T04:33:02.933Z,18.65
2018-06-09T04:34:02.954Z,18.73
2018-06-09T04:35:02.971Z,18.72
2018-06-09T04:36:02.993Z,18.82
2018-06-09T04:37:03.017Z,18.79
2018-06-09T04:38:03.037Z,18.86
2018-06-09T04:39:03.058Z,18.98
2018-06-09T04:40:03.126Z,18.91
2018-06-09T04:41:03.101Z,18.94
2018-06-09T04:42:03.123Z,18.92
2018-06-09T04:43:03.142Z,18.94
2018-06-09T04:44:03.165Z,18.90
2018-06-09T04:45:03.185Z,18.94
2018-06-09T04:46:03.230Z,18.84
2018-06-09T04:47:03.228Z,19.06
2018-06-09T04:48:03.254Z,19.05
2018-06-09T04:49:03.272Z,19.02
2018-06-09T04:50:03.298Z,19.01
2018-06-09T04:51:03.316Z,19.11
2018-06-09T04:52:03.339Z,19.23
2018-06-09T04:53:03.362Z,19.17
2018-06-09T04:54:03.382Z,19.33
2018-06-09T04:55:03.404Z,19.36
2018-06-09T04:56:03.424Z,19.33
2018-06-09T04:57:03.447Z,19.35
2018-06-09T04:58:03.465Z,19.38
2018-06-09T04:59:03.494Z,19.43
2018-06-09T05:00:03.520Z,19.54
2018-06-09T05:01:03.533Z,19.51
2018-06-09T05:02:03.557Z,19.58
2018-06-09T05:03:03.577Z,19.55
2018-06-09T05:04:03.603Z,19.61
2018-06-09T05:05:03.624Z,19.54
2018-06-09T05:06:03.646Z,19.50
2018-06-09T05:07:03.667Z,19.48
2018-06-09T05:08:03.692Z,19.51
2018-06-09T05:09:03.707Z,19.60
2018-06-09T05:10:03.737Z,19.60
2018-06-09T05:11:03.752Z,19.76
2018-06-09T05:12:03.779Z,19.87
2018-06-09T05:13:03.877Z,19.87
2018-06-09T05:14:03.820Z,20.02
2018-06-09T05:15:03.839Z,20.02
2018-06-09T05:16:03.865Z,20.12
2018-06-09T05:17:03.889Z,20.15
2018-06-09T05:18:03.912Z,20.20
2018-06-09T05:19:03.934Z,20.18
2018-06-09T05:20:03.954Z,20.24
2018-06-09T05:21:03.982Z,20.30
2018-06-09T05:22:04.000Z,20.42
2018-06-09T05:23:04.024Z,20.39
2018-06-09T05:24:04.042Z,20.31
2018-06-09T05:25:04.065Z,20.49
2018-06-09T05:26:04.093Z,20.66
2018-06-09T05:27:04.117Z,20.80
2018-06-09T05:28:04.151Z,20.98
2018-06-09T05:29:04.158Z,21.02
2018-06-09T05:30:04.186Z,21.16
2018-06-09T05:31:04.207Z,21.45
2018-06-09T05:32:04.230Z,21.61
2018-06-09T05:33:04.248Z,21.88
2018-06-09T05:34:04.271Z,21.98
2018-06-09T05:35:04.303Z,22.02
2018-06-09T05:36:04.317Z,22.23
2018-06-09T05:37:04.340Z,22.35
2018-06-09T05:38:04.362Z,22.52
2018-06-09T05:39:04.388Z,22.75
2018-06-09T05:40:04.422Z,23.05
2018-06-09T05:41:04.433Z,23.46
2018-06-09T05:42:04.464Z,23.72
2018-06-09T05:43:04.480Z,24.10
2018-06-09T05:44:04.504Z,24.23
2018-06-09T05:45:04.538Z,24.23
2018-06-09T05:46:04.558Z,24.73
2018-06-09T05:47:04.579Z,25.13
2018-06-09T05:48:04.606Z,25.31
2018-06-09T05:49:04.630Z,25.02
2018-06-09T05:50:04.656Z,24.80
2018-06-09T05:51:04.679Z,24.94
2018-06-09T05:52:04.704Z,25.24
2018-06-09T05:53:04.730Z,25.52
2018-06-09T05:54:04.753Z,25.64
2018-06-09T05:55:04.779Z,25.57
2018-06-09T05:56:04.811Z,25.72
2018-06-09T05:57:04.830Z,25.87
2018-06-09T05:58:04.859Z,26.05
2018-06-09T05:59:04.884Z,26.12
2018-06-09T06:00:04.909Z,26.32
2018-06-09T06:01:04.938Z,26.05
2018-06-09T06:02:04.961Z,26.18
2018-06-09T06:03:05.021Z,26.15
2018-06-09T06:04:05.010Z,25.98
2018-06-09T06:05:05.035Z,25.39
2018-06-09T06:06:05.066Z,24.79
2018-06-09T06:07:05.094Z,24.50
2018-06-09T06:08:05.116Z,24.34
2018-06-09T06:09:05.146Z,24.50
2018-06-09T06:10:05.170Z,24.64
2018-06-09T06:11:05.194Z,24.97
2018-06-09T06:12:05.222Z,25.16
2018-06-09T06:13:05.248Z,25.38
2018-06-09T06:14:05.272Z,25.64
2018-06-09T06:15:05.301Z,25.68
2018-06-09T06:16:05.326Z,25.89
2018-06-09T06:17:05.352Z,26.21
2018-06-09T06:18:05.379Z,26.39
2018-06-09T06:19:05.404Z,26.40
2018-06-09T06:20:05.436Z,26.92
2018-06-09T06:21:05.458Z,26.98
2018-06-09T06:22:05.487Z,27.21
2018-06-09T06:23:05.513Z,26.87
2018-06-09T06:24:05.540Z,26.87
2018-06-09T06:25:05.564Z,26.40
2018-06-09T06:26:05.591Z,25.84
2018-06-09T06:27:05.621Z,25.71
2018-06-09T06:28:05.648Z,25.54
2018-06-09T06:29:05.681Z,25.34
2018-06-09T06:30:05.698Z,25.02
2018-06-09T06:31:05.725Z,25.02
2018-06-09T06:32:05.761Z,25.22
2018-06-09T06:33:05.782Z,25.27
2018-06-09T06:34:05.808Z,25.52
2018-06-09T06:35:05.838Z,25.72
2018-06-09T06:36:05.864Z,25.98
2018-06-09T06:37:05.890Z,25.86
2018-06-09T06:38:05.918Z,25.42
2018-06-09T06:39:05.943Z,25.05
2018-06-09T06:40:05.975Z,24.82
2018-06-09T06:41:05.997Z,24.68
2018-06-09T06:42:06.029Z,24.75
2018-06-09T06:43:06.050Z,24.73
2018-06-09T06:44:06.085Z,24.80
2018-06-09T06:45:06.186Z,24.88
2018-06-09T06:46:06.129Z,25.06
2018-06-09T06:47:06.157Z,25.02
2018-06-09T06:48:06.184Z,25.09
2018-06-09T06:49:06.209Z,25.30
2018-06-09T06:50:06.237Z,25.56
2018-06-09T06:51:06.263Z,25.90
2018-06-09T06:52:06.289Z,26.28
2018-06-09T06:53:06.325Z,26.55
2018-06-09T06:54:06.343Z,26.91
2018-06-09T06:55:06.374Z,27.23
2018-06-09T06:56:06.402Z,27.33
2018-06-09T06:57:06.421Z,27.48
2018-06-09T06:58:06.455Z,27.62
2018-06-09T06:59:06.477Z,27.71
2018-06-09T07:00:06.502Z,28.26
2018-06-09T07:01:06.536Z,28.28
2018-06-09T07:02:06.583Z,28.58
2018-06-09T07:03:06.586Z,28.40
2018-06-09T07:04:06.620Z,27.96
2018-06-09T07:05:06.641Z,27.31
2018-06-09T07:06:06.665Z,27.04
2018-06-09T07:07:06.699Z,27.28
2018-06-09T07:08:06.722Z,27.33
2018-06-09T07:09:06.751Z,27.41
2018-06-09T07:10:06.782Z,27.16
2018-06-09T07:11:06.812Z,26.92
2018-06-09T07:12:06.839Z,27.11
2018-06-09T07:13:06.869Z,27.19
2018-06-09T07:14:06.893Z,27.51
2018-06-09T07:15:06.924Z,27.92
2018-06-09T07:16:06.950Z,28.29
2018-06-09T07:17:06.975Z,28.66
2018-06-09T07:18:07.014Z,28.85
2018-06-09T07:19:07.035Z,28.91
2018-06-09T07:20:07.061Z,28.90
2018-06-09T07:21:07.090Z,28.69
2018-06-09T07:22:07.160Z,28.80
2018-06-09T07:23:07.145Z,29.03
2018-06-09T07:24:07.177Z,28.91
2018-06-09T07:25:07.201Z,29.01
2018-06-09T07:26:07.231Z,29.25
2018-06-09T07:27:07.264Z,29.25
2018-06-09T07:28:07.299Z,29.31
2018-06-09T07:29:07.317Z,29.38
2018-06-09T07:30:07.348Z,29.34
2018-06-09T07:31:07.378Z,29.13
2018-06-09T07:32:07.406Z,29.16
2018-06-09T07:33:07.442Z,29.07
2018-06-09T07:34:07.464Z,29.16
2018-06-09T07:35:07.504Z,29.01
2018-06-09T07:36:07.530Z,29.04
2018-06-09T07:37:07.556Z,29.13
2018-06-09T07:38:07.583Z,29.06
2018-06-09T07:39:07.612Z,29.19
2018-06-09T07:40:07.642Z,29.25
2018-06-09T07:41:07.670Z,29.23
2018-06-09T07:42:07.710Z,29.23
2018-06-09T07:43:07.729Z,29.03
2018-06-09T07:44:07.766Z,29.03
2018-06-09T07:45:07.790Z,29.16
2018-06-09T07:46:07.822Z,28.63
2018-06-09T07:47:07.853Z,28.72
2018-06-09T07:48:07.878Z,28.70
2018-06-09T07:49:07.908Z,28.82
2018-06-09T07:50:07.942Z,28.47
2018-06-09T07:51:07.967Z,28.46
2018-06-09T07:52:08.001Z,28.07
2018-06-09T07:53:08.024Z,28.21
2018-06-09T07:54:08.065Z,28.44
2018-06-09T07:55:08.087Z,28.58
2018-06-09T07:56:08.121Z,28.75
2018-06-09T07:57:08.148Z,28.80
2018-06-09T07:58:08.172Z,28.82
2018-06-09T07:59:08.203Z,28.77
2018-06-09T08:00:08.233Z,28.69
2018-06-09T08:01:08.269Z,28.77
2018-06-09T08:02:08.292Z,28.63
2018-06-09T08:03:08.322Z,28.75
2018-06-09T08:04:08.355Z,28.81
2018-06-09T08:05:08.385Z,28.85
2018-06-09T08:06:08.421Z,28.58
2018-06-09T08:07:08.442Z,28.38
2018-06-09T08:08:08.477Z,27.73
2018-06-09T08:09:08.503Z,27.42
2018-06-09T08:10:08.533Z,27.26
2018-06-09T08:11:08.562Z,27.33
2018-06-09T08:12:08.590Z,27.33
2018-06-09T08:13:08.622Z,27.58
2018-06-09T08:14:08.651Z,27.77
2018-06-09T08:15:08.686Z,28.06
2018-06-09T08:16:08.712Z,28.21
2018-06-09T08:17:08.735Z,28.40
2018-06-09T08:18:08.768Z,28.33
2018-06-09T08:19:08.799Z,28.31
2018-06-09T08:20:08.831Z,28.16
2018-06-09T08:21:08.856Z,28.13
2018-06-09T08:22:08.883Z,28.10
2018-06-09T08:23:08.916Z,28.16
2018-06-09T08:24:08.948Z,28.25
2018-06-09T08:25:08.975Z,27.89
2018-06-09T08:26:09.001Z,27.38
2018-06-09T08:27:09.031Z,27.10
2018-06-09T08:28:09.063Z,27.31
2018-06-09T08:29:09.152Z,27.47
2018-06-09T08:30:09.115Z,27.59
2018-06-09T08:31:09.145Z,27.84
2018-06-09T08:32:09.177Z,27.71
2018-06-09T08:33:09.206Z,27.73
2018-06-09T08:34:09.234Z,27.57
2018-06-09T08:35:09.266Z,27.74
2018-06-09T08:36:09.376Z,27.80
2018-06-09T08:37:09.320Z,27.86
2018-06-09T08:38:09.350Z,28.14
2018-06-09T08:39:09.381Z,28.17
2018-06-09T08:40:09.413Z,28.07
2018-06-09T08:41:09.435Z,27.98
2018-06-09T08:42:09.464Z,28.04
2018-06-09T08:43:09.492Z,28.07
2018-06-09T08:44:09.520Z,28.04
2018-06-09T08:45:09.548Z,27.77
2018-06-09T08:46:09.579Z,27.66
2018-06-09T08:47:09.609Z,27.61
2018-06-09T08:48:09.636Z,27.64
2018-06-09T08:49:09.697Z,27.42
2018-06-09T08:50:09.717Z,27.19
2018-06-09T08:51:09.717Z,27.13
2018-06-09T08:52:09.748Z,27.26
2018-06-09T08:53:09.776Z,27.41
2018-06-09T08:54:09.804Z,27.50
2018-06-09T08:55:09.835Z,27.62
2018-06-09T08:56:09.862Z,27.67
2018-06-09T08:57:09.887Z,27.84
2018-06-09T08:58:09.922Z,27.94
2018-06-09T08:59:09.946Z,28.01
2018-06-09T09:00:09.971Z,27.91
2018-06-09T09:01:10.002Z,27.84
2018-06-09T09:02:10.025Z,27.94
2018-06-09T09:03:10.109Z,27.89
2018-06-09T09:04:10.095Z,27.80
2018-06-09T09:05:10.120Z,27.85
2018-06-09T09:06:10.138Z,27.86
2018-06-09T09:07:10.163Z,27.85
2018-06-09T09:08:10.195Z,27.79
2018-06-09T09:09:10.221Z,27.80
2018-06-09T09:10:10.249Z,27.88
2018-06-09T09:11:10.276Z,27.85
2018-06-09T09:12:10.305Z,27.77
2018-06-09T09:13:10.333Z,27.99
2018-06-09T09:14:10.358Z,28.19
2018-06-09T09:15:10.387Z,28.07
2018-06-09T09:16:10.414Z,28.19
2018-06-09T09:17:10.443Z,28.36
2018-06-09T09:18:10.471Z,28.43
2018-06-09T09:19:10.496Z,28.48
2018-06-09T09:20:10.525Z,28.46
2018-06-09T09:21:10.552Z,28.46
2018-06-09T09:22:10.578Z,28.63
2018-06-09T09:23:10.609Z,28.38
2018-06-09T09:24:10.639Z,28.22
2018-06-09T09:25:10.659Z,28.28
2018-06-09T09:26:10.690Z,28.04
2018-06-09T09:27:10.717Z,27.95
2018-06-09T09:28:10.751Z,27.91
2018-06-09T09:29:10.769Z,28.03
2018-06-09T09:30:10.800Z,28.06
2018-06-09T09:31:10.831Z,28.10
2018-06-09T09:32:10.871Z,28.06
2018-06-09T09:33:10.885Z,28.16
2018-06-09T09:34:10.905Z,28.13
2018-06-09T09:35:10.937Z,28.14
2018-06-09T09:36:10.965Z,28.17
2018-06-09T09:37:10.997Z,27.84
2018-06-09T09:38:11.029Z,27.84
2018-06-09T09:39:11.048Z,27.89
2018-06-09T09:40:11.074Z,27.76
2018-06-09T09:41:11.100Z,27.91
2018-06-09T09:42:11.128Z,28.03
2018-06-09T09:43:11.153Z,28.04
2018-06-09T09:44:11.257Z,28.03
2018-06-09T09:45:11.213Z,28.09
2018-06-09T09:46:11.236Z,28.16
2018-06-09T09:47:11.265Z,28.21
2018-06-09T09:48:11.291Z,28.14
2018-06-09T09:49:11.317Z,28.17
2018-06-09T09:50:11.345Z,27.95
2018-06-09T09:51:11.377Z,28.03
2018-06-09T09:52:11.415Z,28.04
2018-06-09T09:53:11.437Z,27.94
2018-06-09T09:54:11.468Z,28.06
2018-06-09T09:55:11.480Z,28.01
2018-06-09T09:56:11.516Z,28.09
2018-06-09T09:57:11.543Z,28.04
2018-06-09T09:58:11.566Z,28.10
2018-06-09T09:59:11.594Z,28.19
2018-06-09T10:00:11.619Z,28.14
2018-06-09T10:01:11.654Z,28.26
2018-06-09T10:02:11.673Z,28.26
2018-06-09T10:03:11.699Z,28.36
2018-06-09T10:04:11.729Z,28.23
2018-06-09T10:05:11.757Z,28.11
2018-06-09T10:06:11.785Z,28.16
2018-06-09T10:07:11.811Z,28.19
2018-06-09T10:08:11.838Z,28.21
2018-06-09T10:09:11.865Z,28.28
2018-06-09T10:10:11.888Z,28.25
2018-06-09T10:11:11.919Z,28.22
2018-06-09T10:12:11.944Z,28.31
2018-06-09T10:13:11.974Z,28.25
2018-06-09T10:14:12.006Z,28.04
2018-06-09T10:15:12.029Z,28.03
2018-06-09T10:16:12.055Z,27.54
2018-06-09T10:17:12.083Z,27.16
2018-06-09T10:18:12.115Z,27.16
2018-06-09T10:19:12.139Z,27.01
2018-06-09T10:20:12.165Z,27.09
2018-06-09T10:21:12.195Z,27.33
2018-06-09T10:22:12.219Z,27.57
2018-06-09T10:23:12.250Z,27.69
2018-06-09T10:24:12.272Z,27.91
2018-06-09T10:25:12.302Z,27.96
2018-06-09T10:26:12.330Z,28.06
2018-06-09T10:27:12.356Z,28.11
2018-06-09T10:28:12.384Z,28.16
2018-06-09T10:29:12.417Z,27.98
2018-06-09T10:30:12.434Z,28.03
2018-06-09T10:31:12.462Z,28.06
2018-06-09T10:32:12.491Z,28.09
2018-06-09T10:33:12.524Z,28.23
2018-06-09T10:34:12.549Z,28.28
2018-06-09T10:35:12.571Z,28.25
2018-06-09T10:36:12.601Z,28.21
2018-06-09T10:37:12.642Z,28.19
2018-06-09T10:38:12.655Z,28.17
2018-06-09T10:39:12.685Z,28.29
2018-06-09T10:40:12.709Z,28.33
2018-06-09T10:41:12.736Z,28.38
2018-06-09T10:42:12.781Z,28.50
2018-06-09T10:43:12.796Z,28.53
2018-06-09T10:44:12.818Z,28.62
2018-06-09T10:45:12.886Z,28.50
2018-06-09T10:46:12.880Z,28.54
2018-06-09T10:47:12.908Z,28.73
2018-06-09T10:48:12.934Z,28.72
2018-06-09T10:49:12.955Z,28.62
2018-06-09T10:50:12.980Z,28.75
2018-06-09T10:51:13.008Z,28.60
2018-06-09T10:52:13.038Z,28.62
2018-06-09T10:53:13.068Z,28.63
2018-06-09T10:54:13.093Z,28.75
2018-06-09T10:55:13.119Z,28.35
2018-06-09T10:56:13.144Z,28.19
2018-06-09T10:57:13.173Z,28.06
2018-06-09T10:58:13.198Z,27.89
2018-06-09T10:59:13.229Z,27.88
2018-06-09T11:00:13.256Z,27.84
2018-06-09T11:01:13.281Z,27.64
2018-06-09T11:02:13.312Z,27.77
2018-06-09T11:03:13.336Z,27.95
2018-06-09T11:04:13.365Z,28.16
2018-06-09T11:05:13.398Z,28.26
2018-06-09T11:06:13.420Z,28.44
2018-06-09T11:07:13.448Z,28.50
2018-06-09T11:08:13.473Z,28.63
2018-06-09T11:09:13.501Z,28.77
2018-06-09T11:10:13.532Z,28.90
2018-06-09T11:11:13.555Z,28.96
2018-06-09T11:12:13.582Z,29.06
2018-06-09T11:13:13.613Z,29.08
2018-06-09T11:14:13.634Z,29.19
2018-06-09T11:15:13.663Z,29.13
2018-06-09T11:16:13.694Z,29.07
2018-06-09T11:17:13.723Z,29.23
2018-06-09T11:18:13.805Z,29.08
2018-06-09T11:19:13.822Z,29.19
2018-06-09T11:20:13.802Z,29.34
2018-06-09T11:21:13.834Z,29.34
2018-06-09T11:22:13.873Z,29.34
2018-06-09T11:23:13.885Z,29.19
2018-06-09T11:24:13.914Z,28.96
2018-06-09T11:25:13.943Z,28.95
2018-06-09T11:26:13.967Z,28.82
2018-06-09T11:27:14.065Z,28.90
2018-06-09T11:28:14.053Z,28.97
2018-06-09T11:29:14.050Z,28.95
2018-06-09T11:30:14.074Z,28.97
2018-06-09T11:31:14.115Z,28.85
2018-06-09T11:32:14.144Z,28.96
2018-06-09T11:33:14.158Z,28.95
2018-06-09T11:34:14.200Z,28.97
2018-06-09T11:35:14.250Z,28.91
2018-06-09T11:36:14.266Z,29.04
2018-06-09T11:37:14.271Z,29.07
2018-06-09T11:38:14.297Z,29.16
2018-06-09T11:39:14.419Z,29.04
2018-06-09T11:40:14.374Z,29.10
2018-06-09T11:41:14.427Z,29.33
2018-06-09T11:42:14.464Z,29.31
2018-06-09T11:43:14.519Z,29.31
2018-06-09T11:44:14.462Z,29.45
2018-06-09T11:45:14.549Z,29.63
2018-06-09T11:46:14.521Z,29.44
2018-06-09T11:47:14.582Z,29.07
2018-06-09T11:48:14.603Z,28.93
2018-06-09T11:49:14.643Z,29.01
2018-06-09T11:50:14.648Z,29.19
2018-06-09T11:51:14.682Z,29.06
2018-06-09T11:52:14.692Z,29.22
2018-06-09T11:53:14.714Z,29.37
2018-06-09T11:54:14.763Z,29.35
2018-06-09T11:55:14.789Z,29.50
2018-06-09T11:56:14.801Z,29.56
2018-06-09T11:57:14.858Z,29.55
2018-06-09T11:58:14.860Z,29.47
2018-06-09T11:59:14.901Z,29.53
2018-06-09T12:00:14.909Z,29.57
2018-06-09T12:01:14.968Z,29.53
2018-06-09T12:02:14.987Z,29.70
2018-06-09T12:03:15.000Z,29.55
2018-06-09T12:04:15.028Z,29.20
2018-06-09T12:05:15.056Z,29.25
2018-06-09T12:06:15.150Z,28.88
2018-06-09T12:07:15.121Z,28.88
2018-06-09T12:08:15.165Z,28.75
2018-06-09T12:09:15.157Z,28.72
2018-06-09T12:10:15.202Z,28.85
2018-06-09T12:11:15.223Z,29.10
2018-06-09T12:12:15.293Z,29.31
2018-06-09T12:13:15.279Z,29.37
2018-06-09T12:14:15.335Z,29.45
2018-06-09T12:15:15.361Z,29.56
2018-06-09T12:16:15.358Z,29.71
2018-06-09T12:17:15.431Z,29.66
2018-06-09T12:18:15.417Z,29.70
2018-06-09T12:19:15.438Z,29.79
2018-06-09T12:20:15.467Z,29.81
2018-06-09T12:21:15.543Z,29.79
2018-06-09T12:22:15.529Z,29.82
2018-06-09T12:23:15.600Z,29.96
2018-06-09T12:24:15.595Z,30.07
2018-06-09T12:25:15.630Z,30.05
2018-06-09T12:26:15.632Z,29.99
2018-06-09T12:27:15.671Z,30.00
2018-06-09T12:28:15.711Z,30.11
2018-06-09T12:29:15.756Z,30.19
2018-06-09T12:30:15.746Z,30.14
2018-06-09T12:31:15.775Z,30.23
2018-06-09T12:32:15.802Z,30.21
2018-06-09T12:33:15.876Z,30.14
2018-06-09T12:34:15.854Z,30.15
2018-06-09T12:35:15.903Z,30.16
2018-06-09T12:36:15.978Z,30.11
2018-06-09T12:37:15.971Z,30.14
2018-06-09T12:38:15.969Z,29.82
2018-06-09T12:39:16.018Z,29.57
2018-06-09T12:40:16.033Z,29.49
2018-06-09T12:41:16.092Z,29.43
2018-06-09T12:42:16.109Z,29.57
2018-06-09T12:43:16.121Z,29.66
2018-06-09T12:44:16.141Z,29.71
2018-06-09T12:45:16.174Z,29.82
2018-06-09T12:46:16.217Z,29.66
2018-06-09T12:47:16.222Z,29.59
2018-06-09T12:48:16.265Z,29.53
2018-06-09T12:49:16.286Z,29.55
2018-06-09T12:50:16.309Z,29.65
2018-06-09T12:51:16.338Z,29.55
2018-06-09T12:52:16.377Z,29.70
2018-06-09T12:53:16.394Z,29.56
2018-06-09T12:54:16.421Z,29.57
2018-06-09T12:55:16.451Z,29.59
2018-06-09T12:56:16.478Z,29.10
2018-06-09T12:57:16.504Z,29.04
2018-06-09T12:58:16.530Z,29.10
2018-06-09T12:59:16.571Z,29.28
2018-06-09T13:00:16.590Z,29.29
2018-06-09T13:01:16.620Z,29.29
2018-06-09T13:02:16.644Z,29.25
2018-06-09T13:03:16.674Z,29.45
2018-06-09T13:04:16.708Z,29.70
2018-06-09T13:05:16.735Z,29.89
2018-06-09T13:06:16.756Z,29.87
2018-06-09T13:07:16.789Z,30.08
2018-06-09T13:08:16.819Z,30.21
2018-06-09T13:09:16.837Z,30.24
2018-06-09T13:10:16.866Z,30.36
2018-06-09T13:11:16.895Z,30.37
2018-06-09T13:12:16.925Z,30.47
2018-06-09T13:13:16.951Z,30.36
2018-06-09T13:14:16.976Z,30.23
2018-06-09T13:15:17.004Z,30.15
2018-06-09T13:16:17.035Z,30.16
2018-06-09T13:17:17.063Z,30.15
2018-06-09T13:18:17.096Z,30.24
2018-06-09T13:19:17.118Z,30.16
2018-06-09T13:20:17.166Z,30.11
2018-06-09T13:21:17.186Z,30.07
2018-06-09T13:22:17.205Z,29.87
2018-06-09T13:23:17.233Z,29.62
2018-06-09T13:24:17.262Z,29.55
2018-06-09T13:25:17.286Z,29.55
2018-06-09T13:26:17.318Z,29.53
2018-06-09T13:27:17.349Z,29.66
2018-06-09T13:28:17.378Z,29.37
2018-06-09T13:29:17.400Z,29.08
2018-06-09T13:30:17.438Z,29.04
2018-06-09T13:31:17.458Z,28.60
2018-06-09T13:32:17.489Z,28.22
2018-06-09T13:33:17.521Z,28.31
2018-06-09T13:34:17.541Z,28.29
2018-06-09T13:35:17.579Z,28.50
2018-06-09T13:36:17.598Z,28.81
2018-06-09T13:37:17.627Z,29.04
2018-06-09T13:38:17.649Z,28.84
2018-06-09T13:39:17.679Z,28.70
2018-06-09T13:40:17.710Z,28.81
2018-06-09T13:41:17.783Z,28.70
2018-06-09T13:42:17.767Z,28.73
2018-06-09T13:43:17.788Z,28.72
2018-06-09T13:44:17.817Z,28.66
2018-06-09T13:45:17.847Z,28.62
2018-06-09T13:46:17.873Z,28.63
2018-06-09T13:47:17.900Z,28.51
2018-06-09T13:48:17.925Z,28.47
2018-06-09T13:49:17.956Z,28.43
2018-06-09T13:50:17.980Z,28.40
2018-06-09T13:51:18.008Z,28.41
2018-06-09T13:52:18.037Z,28.73
2018-06-09T13:53:18.062Z,28.88
2018-06-09T13:54:18.108Z,29.08
2018-06-09T13:55:18.117Z,29.22
2018-06-09T13:56:18.150Z,29.35
2018-06-09T13:57:18.176Z,29.44
2018-06-09T13:58:18.208Z,29.62
2018-06-09T13:59:18.232Z,29.63
2018-06-09T14:00:18.261Z,29.70
2018-06-09T14:01:18.288Z,29.79
2018-06-09T14:02:18.314Z,29.78
2018-06-09T14:03:18.338Z,29.86
2018-06-09T14:04:18.368Z,29.81
2018-06-09T14:05:18.405Z,29.81
2018-06-09T14:06:18.422Z,29.90
2018-06-09T14:07:18.449Z,29.99
2018-06-09T14:08:18.478Z,29.89
2018-06-09T14:09:18.508Z,29.94
2018-06-09T14:10:18.539Z,30.12
2018-06-09T14:11:18.560Z,30.05
2018-06-09T14:12:18.591Z,29.97
2018-06-09T14:13:18.650Z,30.09
2018-06-09T14:14:18.645Z,30.15
2018-06-09T14:15:18.677Z,30.09
2018-06-09T14:16:18.700Z,30.18
2018-06-09T14:17:18.727Z,30.18
2018-06-09T14:18:18.754Z,30.11
2018-06-09T14:19:18.788Z,30.14
2018-06-09T14:20:18.813Z,30.08
2018-06-09T14:21:18.851Z,30.12
2018-06-09T14:22:18.868Z,30.19
2018-06-09T14:23:18.899Z,30.09
2018-06-09T14:24:18.932Z,30.09
2018-06-09T14:25:18.950Z,29.86
2018-06-09T14:26:18.981Z,29.84
2018-06-09T14:27:19.006Z,29.79
2018-06-09T14:28:19.033Z,29.78
2018-06-09T14:29:19.067Z,29.66
2018-06-09T14:30:19.089Z,29.81
2018-06-09T14:31:19.117Z,29.93
2018-06-09T14:32:19.146Z,29.89
2018-06-09T14:33:19.177Z,29.59
2018-06-09T14:34:19.199Z,29.50
2018-06-09T14:35:19.234Z,29.59
2018-06-09T14:36:19.256Z,29.38
2018-06-09T14:37:19.285Z,29.34
2018-06-09T14:38:19.314Z,29.56
2018-06-09T14:39:19.339Z,29.55
2018-06-09T14:40:19.367Z,29.57
2018-06-09T14:41:19.396Z,29.70
2018-06-09T14:42:19.429Z,29.66
2018-06-09T14:43:19.451Z,29.81
2018-06-09T14:44:19.478Z,29.92
2018-06-09T14:45:19.512Z,29.86
2018-06-09T14:46:19.535Z,29.78
2018-06-09T14:47:19.564Z,29.86
2018-06-09T14:48:19.600Z,29.87
2018-06-09T14:49:19.618Z,30.08
2018-06-09T14:50:19.645Z,30.26
2018-06-09T14:51:19.677Z,30.12
2018-06-09T14:52:19.706Z,30.30
2018-06-09T14:53:19.728Z,30.31
2018-06-09T14:54:19.757Z,30.49
2018-06-09T14:55:19.791Z,30.33
2018-06-09T14:56:19.818Z,30.43